Terminal Aerodrome Forecast
Issued by NWS

Home | Current Version | Previous Version | Text Only | Print | Product List | Glossary On
Versions: 1 2 3 4 5 6 7 8 9 10 11 12 13 14 15 16 17 18 19 20
215
FTUS43 KMPX 232338
TAFAXN
TAF
KAXN 232338Z 2400/2424 03006KT P6SM -SHRA VCTS BKN005 OVC020CB
      TEMPO 2400/2402 3SM -SHRA BR SCT005 BKN020 OVC100
     FM240200 03007KT 4SM -SHRA BR OVC005
     FM240500 07006KT 4SM BR OVC004
     FM241300 15010KT P6SM OVC012
     FM241500 17013G20KT P6SM SCT020 BKN250=

USA.gov is the U.S. government's official web portal to all federal, state and local government web resources and services.